sensor_id;sensor_type;location;lat;lon;timestamp;temperature;humidity
32097;DHT22;18610;49.916;8.284;2024-02-21T00:02:25;8.40;99.90
32097;DHT22;18610;49.916;8.284;2024-02-21T00:04:52;8.40;99.90
32097;DHT22;18610;49.916;8.284;2024-02-21T00:07:19;8.40;99.90
32097;DHT22;18610;49.916;8.284;2024-02-21T00:09:46;8.30;99.90
32097;DHT22;18610;49.916;8.284;2024-02-21T00:12:13;8.30;99.90
32097;DHT22;18610;49.916;8.284;2024-02-21T00:14:40;8.20;99.90
32097;DHT22;18610;49.916;8.284;2024-02-21T00:17:07;8.20;99.90
32097;DHT22;18610;49.916;8.284;2024-02-21T00:19:34;8.20;99.90
32097;DHT22;18610;49.916;8.284;2024-02-21T00:22:00;8.20;99.90
32097;DHT22;18610;49.916;8.284;2024-02-21T00:24:27;8.10;99.90
32097;DHT22;18610;49.916;8.284;2024-02-21T00:26:55;8.10;99.90
32097;DHT22;18610;49.916;8.284;2024-02-21T00:29:22;8.00;99.90
32097;DHT22;18610;49.916;8.284;2024-02-21T00:31:49;8.10;99.90
32097;DHT22;18610;49.916;8.284;2024-02-21T00:34:16;8.10;99.90
32097;DHT22;18610;49.916;8.284;2024-02-21T00:36:42;8.10;99.90
32097;DHT22;18610;49.916;8.284;2024-02-21T00:39:09;8.00;99.90
32097;DHT22;18610;49.916;8.284;2024-02-21T00:41:36;8.00;99.90
32097;DHT22;18610;49.916;8.284;2024-02-21T00:44:04;8.00;99.90
32097;DHT22;18610;49.916;8.284;2024-02-21T00:46:31;8.00;99.90
32097;DHT22;18610;49.916;8.284;2024-02-21T00:48:59;8.00;99.90
32097;DHT22;18610;49.916;8.284;2024-02-21T00:51:26;8.00;99.90
32097;DHT22;18610;49.916;8.284;2024-02-21T00:53:52;8.00;99.90
32097;DHT22;18610;49.916;8.284;2024-02-21T00:56:19;8.00;99.90
32097;DHT22;18610;49.916;8.284;2024-02-21T00:58:45;8.00;99.90
32097;DHT22;18610;49.916;8.284;2024-02-21T01:01:21;8.00;99.90
32097;DHT22;18610;49.916;8.284;2024-02-21T01:03:47;8.00;99.90
32097;DHT22;18610;49.916;8.284;2024-02-21T01:06:14;8.00;99.90
32097;DHT22;18610;49.916;8.284;2024-02-21T01:08:41;7.90;99.90
32097;DHT22;18610;49.916;8.284;2024-02-21T01:11:07;7.90;99.90
32097;DHT22;18610;49.916;8.284;2024-02-21T01:13:34;7.90;99.90
32097;DHT22;18610;49.916;8.284;2024-02-21T01:16:00;8.00;99.90
32097;DHT22;18610;49.916;8.284;2024-02-21T01:18:28;8.00;99.90
32097;DHT22;18610;49.916;8.284;2024-02-21T01:20:55;8.00;99.90
32097;DHT22;18610;49.916;8.284;2024-02-21T01:23:22;8.00;99.90
32097;DHT22;18610;49.916;8.284;2024-02-21T01:25:48;8.00;99.90
32097;DHT22;18610;49.916;8.284;2024-02-21T01:28:15;8.10;99.90
32097;DHT22;18610;49.916;8.284;2024-02-21T01:30:42;8.10;99.90
32097;DHT22;18610;49.916;8.284;2024-02-21T01:33:08;8.10;99.90
32097;DHT22;18610;49.916;8.284;2024-02-21T01:35:36;8.00;99.90
32097;DHT22;18610;49.916;8.284;2024-02-21T01:38:03;8.10;99.90
32097;DHT22;18610;49.916;8.284;2024-02-21T01:40:30;8.10;99.90
32097;DHT22;18610;49.916;8.284;2024-02-21T01:42:57;8.10;99.90
32097;DHT22;18610;49.916;8.284;2024-02-21T01:45:23;8.10;99.90
32097;DHT22;18610;49.916;8.284;2024-02-21T01:47:50;8.10;99.90
32097;DHT22;18610;49.916;8.284;2024-02-21T01:50:17;8.10;99.90
32097;DHT22;18610;49.916;8.284;2024-02-21T01:52:46;8.10;99.90
32097;DHT22;18610;49.916;8.284;2024-02-21T01:55:16;8.10;99.90
32097;DHT22;18610;49.916;8.284;2024-02-21T01:57:44;8.10;99.90
32097;DHT22;18610;49.916;8.284;2024-02-21T02:00:13;8.20;99.90
32097;DHT22;18610;49.916;8.284;2024-02-21T02:02:42;8.10;99.90
32097;DHT22;18610;49.916;8.284;2024-02-21T02:05:09;8.20;99.90
32097;DHT22;18610;49.916;8.284;2024-02-21T02:07:35;8.20;99.90
32097;DHT22;18610;49.916;8.284;2024-02-21T02:10:05;8.20;99.90
32097;DHT22;18610;49.916;8.284;2024-02-21T02:12:32;8.20;99.90
32097;DHT22;18610;49.916;8.284;2024-02-21T02:14:59;8.20;99.90
32097;DHT22;18610;49.916;8.284;2024-02-21T02:17:26;8.20;99.90
32097;DHT22;18610;49.916;8.284;2024-02-21T02:19:52;8.30;99.90
32097;DHT22;18610;49.916;8.284;2024-02-21T02:22:22;8.30;99.90
32097;DHT22;18610;49.916;8.284;2024-02-21T02:24:53;8.30;99.90
32097;DHT22;18610;49.916;8.284;2024-02-21T02:27:20;8.30;99.90
32097;DHT22;18610;49.916;8.284;2024-02-21T02:29:48;8.20;99.90
32097;DHT22;18610;49.916;8.284;2024-02-21T02:32:15;8.20;99.90
32097;DHT22;18610;49.916;8.284;2024-02-21T02:34:41;8.20;99.90
32097;DHT22;18610;49.916;8.284;2024-02-21T02:37:08;8.20;99.90
32097;DHT22;18610;49.916;8.284;2024-02-21T02:39:35;8.10;99.90
32097;DHT22;18610;49.916;8.284;2024-02-21T02:42:03;8.20;99.90
32097;DHT22;18610;49.916;8.284;2024-02-21T02:44:30;8.10;99.90
32097;DHT22;18610;49.916;8.284;2024-02-21T02:46:57;8.20;99.90
32097;DHT22;18610;49.916;8.284;2024-02-21T02:49:24;8.20;99.90
32097;DHT22;18610;49.916;8.284;2024-02-21T02:51:50;8.20;99.90
32097;DHT22;18610;49.916;8.284;2024-02-21T02:54:17;8.20;99.90
32097;DHT22;18610;49.916;8.284;2024-02-21T02:56:44;8.20;99.90
32097;DHT22;18610;49.916;8.284;2024-02-21T02:59:12;8.10;99.90
32097;DHT22;18610;49.916;8.284;2024-02-21T03:01:38;8.20;99.90
32097;DHT22;18610;49.916;8.284;2024-02-21T03:04:05;8.20;99.90
32097;DHT22;18610;49.916;8.284;2024-02-21T03:06:32;8.20;99.90
32097;DHT22;18610;49.916;8.284;2024-02-21T03:08:58;8.20;99.90
32097;DHT22;18610;49.916;8.284;2024-02-21T03:11:25;8.20;99.90
32097;DHT22;18610;49.916;8.284;2024-02-21T03:13:54;8.20;99.90
32097;DHT22;18610;49.916;8.284;2024-02-21T03:16:23;8.10;99.90
32097;DHT22;18610;49.916;8.284;2024-02-21T03:18:49;8.10;99.90
32097;DHT22;18610;49.916;8.284;2024-02-21T03:21:16;8.10;99.90
32097;DHT22;18610;49.916;8.284;2024-02-21T03:23:43;8.10;99.90
32097;DHT22;18610;49.916;8.284;2024-02-21T03:26:09;8.10;99.90
32097;DHT22;18610;49.916;8.284;2024-02-21T03:28:36;8.10;99.90
32097;DHT22;18610;49.916;8.284;2024-02-21T03:31:05;8.10;99.90
32097;DHT22;18610;49.916;8.284;2024-02-21T03:33:33;8.10;99.90
32097;DHT22;18610;49.916;8.284;2024-02-21T03:35:59;8.10;99.90
32097;DHT22;18610;49.916;8.284;2024-02-21T03:38:26;8.10;99.90
32097;DHT22;18610;49.916;8.284;2024-02-21T03:40:53;8.20;99.90
32097;DHT22;18610;49.916;8.284;2024-02-21T03:43:19;8.20;99.90
32097;DHT22;18610;49.916;8.284;2024-02-21T03:45:46;8.20;99.90
32097;DHT22;18610;49.916;8.284;2024-02-21T03:48:13;8.20;99.90
32097;DHT22;18610;49.916;8.284;2024-02-21T03:50:41;8.20;99.90
32097;DHT22;18610;49.916;8.284;2024-02-21T03:53:08;8.20;99.90
32097;DHT22;18610;49.916;8.284;2024-02-21T03:55:35;8.10;99.90
32097;DHT22;18610;49.916;8.284;2024-02-21T03:58:01;8.10;99.90
32097;DHT22;18610;49.916;8.284;2024-02-21T04:00:28;8.00;99.90
32097;DHT22;18610;49.916;8.284;2024-02-21T04:02:55;8.00;99.90
32097;DHT22;18610;49.916;8.284;2024-02-21T04:05:22;8.00;99.90
32097;DHT22;18610;49.916;8.284;2024-02-21T04:07:50;8.00;99.90
32097;DHT22;18610;49.916;8.284;2024-02-21T04:10:17;8.00;99.90
32097;DHT22;18610;49.916;8.284;2024-02-21T04:12:44;8.00;99.90
32097;DHT22;18610;49.916;8.284;2024-02-21T04:15:10;8.00;99.90
32097;DHT22;18610;49.916;8.284;2024-02-21T04:17:37;8.00;99.90
32097;DHT22;18610;49.916;8.284;2024-02-21T04:20:05;8.00;99.90
32097;DHT22;18610;49.916;8.284;2024-02-21T04:22:33;8.00;99.90
32097;DHT22;18610;49.916;8.284;2024-02-21T04:25:02;8.00;99.90
32097;DHT22;18610;49.916;8.284;2024-02-21T04:27:28;8.00;99.90
32097;DHT22;18610;49.916;8.284;2024-02-21T04:29:55;7.90;99.90
32097;DHT22;18610;49.916;8.284;2024-02-21T04:32:22;7.90;99.90
32097;DHT22;18610;49.916;8.284;2024-02-21T04:34:48;7.90;99.90
32097;DHT22;18610;49.916;8.284;2024-02-21T04:37:15;7.90;99.90
32097;DHT22;18610;49.916;8.284;2024-02-21T04:39:42;7.80;99.90
32097;DHT22;18610;49.916;8.284;2024-02-21T04:42:10;7.80;99.90
32097;DHT22;18610;49.916;8.284;2024-02-21T04:44:37;7.80;99.90
32097;DHT22;18610;49.916;8.284;2024-02-21T04:47:04;7.80;99.90
32097;DHT22;18610;49.916;8.284;2024-02-21T04:49:31;7.80;99.90
32097;DHT22;18610;49.916;8.284;2024-02-21T04:51:57;7.80;99.90
32097;DHT22;18610;49.916;8.284;2024-02-21T04:54:24;7.70;99.90
32097;DHT22;18610;49.916;8.284;2024-02-21T04:56:51;7.70;99.90
32097;DHT22;18610;49.916;8.284;2024-02-21T04:59:19;7.80;99.90
32097;DHT22;18610;49.916;8.284;2024-02-21T05:01:45;7.80;99.90
32097;DHT22;18610;49.916;8.284;2024-02-21T05:04:12;7.80;99.90
32097;DHT22;18610;49.916;8.284;2024-02-21T05:06:39;7.80;99.90
32097;DHT22;18610;49.916;8.284;2024-02-21T05:09:07;7.80;99.90
32097;DHT22;18610;49.916;8.284;2024-02-21T05:11:35;7.80;99.90
32097;DHT22;18610;49.916;8.284;2024-02-21T05:14:01;7.80;99.90
32097;DHT22;18610;49.916;8.284;2024-02-21T05:16:30;7.80;99.90
32097;DHT22;18610;49.916;8.284;2024-02-21T05:18:57;7.80;99.90
32097;DHT22;18610;49.916;8.284;2024-02-21T05:21:24;7.80;99.90
32097;DHT22;18610;49.916;8.284;2024-02-21T05:23:51;7.80;99.90
32097;DHT22;18610;49.916;8.284;2024-02-21T05:26:20;7.80;99.90
32097;DHT22;18610;49.916;8.284;2024-02-21T05:28:48;7.70;99.90
32097;DHT22;18610;49.916;8.284;2024-02-21T05:31:15;7.60;99.90
32097;DHT22;18610;49.916;8.284;2024-02-21T05:33:43;7.60;99.90
32097;DHT22;18610;49.916;8.284;2024-02-21T05:36:09;7.60;99.90
32097;DHT22;18610;49.916;8.284;2024-02-21T05:38:36;7.50;99.90
32097;DHT22;18610;49.916;8.284;2024-02-21T05:41:03;7.50;99.90
32097;DHT22;18610;49.916;8.284;2024-02-21T05:43:30;7.50;99.90
32097;DHT22;18610;49.916;8.284;2024-02-21T05:45:57;7.50;99.90
32097;DHT22;18610;49.916;8.284;2024-02-21T05:48:24;7.50;99.90
32097;DHT22;18610;49.916;8.284;2024-02-21T05:50:52;7.50;99.90
32097;DHT22;18610;49.916;8.284;2024-02-21T05:53:19;7.60;99.90
32097;DHT22;18610;49.916;8.284;2024-02-21T05:55:45;7.60;99.90
32097;DHT22;18610;49.916;8.284;2024-02-21T05:58:12;7.70;99.90
32097;DHT22;18610;49.916;8.284;2024-02-21T06:00:39;7.70;99.90
32097;DHT22;18610;49.916;8.284;2024-02-21T06:03:06;7.70;99.90
32097;DHT22;18610;49.916;8.284;2024-02-21T06:05:36;7.80;99.90
32097;DHT22;18610;49.916;8.284;2024-02-21T06:08:05;7.80;99.90
32097;DHT22;18610;49.916;8.284;2024-02-21T06:10:33;7.80;99.90
32097;DHT22;18610;49.916;8.284;2024-02-21T06:13:00;7.80;99.90
32097;DHT22;18610;49.916;8.284;2024-02-21T06:15:26;7.70;99.90
32097;DHT22;18610;49.916;8.284;2024-02-21T06:17:53;7.70;99.90
32097;DHT22;18610;49.916;8.284;2024-02-21T06:20:20;7.60;99.90
32097;DHT22;18610;49.916;8.284;2024-02-21T06:22:46;7.60;99.90
32097;DHT22;18610;49.916;8.284;2024-02-21T06:25:14;7.50;99.90
32097;DHT22;18610;49.916;8.284;2024-02-21T06:27:41;7.40;99.90
32097;DHT22;18610;49.916;8.284;2024-02-21T06:30:08;7.40;99.90
32097;DHT22;18610;49.916;8.284;2024-02-21T06:32:35;7.40;99.90
32097;DHT22;18610;49.916;8.284;2024-02-21T06:35:03;7.40;99.90
32097;DHT22;18610;49.916;8.284;2024-02-21T06:37:29;7.30;99.90
32097;DHT22;18610;49.916;8.284;2024-02-21T06:39:57;7.30;99.90
32097;DHT22;18610;49.916;8.284;2024-02-21T06:42:25;7.20;99.90
32097;DHT22;18610;49.916;8.284;2024-02-21T06:44:52;7.20;99.90
32097;DHT22;18610;49.916;8.284;2024-02-21T06:47:19;7.20;99.90
32097;DHT22;18610;49.916;8.284;2024-02-21T06:49:48;7.20;99.90
32097;DHT22;18610;49.916;8.284;2024-02-21T06:52:16;7.10;99.90
32097;DHT22;18610;49.916;8.284;2024-02-21T06:54:45;7.10;99.90
32097;DHT22;18610;49.916;8.284;2024-02-21T06:57:12;7.10;99.90
32097;DHT22;18610;49.916;8.284;2024-02-21T06:59:40;7.10;99.90
32097;DHT22;18610;49.916;8.284;2024-02-21T07:02:07;7.10;99.90
32097;DHT22;18610;49.916;8.284;2024-02-21T07:04:34;7.10;99.90
32097;DHT22;18610;49.916;8.284;2024-02-21T07:07:01;7.10;99.90
32097;DHT22;18610;49.916;8.284;2024-02-21T07:09:28;7.20;99.90
32097;DHT22;18610;49.916;8.284;2024-02-21T07:11:57;7.20;99.90
32097;DHT22;18610;49.916;8.284;2024-02-21T07:14:24;7.20;99.90
32097;DHT22;18610;49.916;8.284;2024-02-21T07:16:52;7.30;99.90
32097;DHT22;18610;49.916;8.284;2024-02-21T07:19:18;7.30;99.90
32097;DHT22;18610;49.916;8.284;2024-02-21T07:21:45;7.30;99.90
32097;DHT22;18610;49.916;8.284;2024-02-21T07:24:12;7.30;99.90
32097;DHT22;18610;49.916;8.284;2024-02-21T07:26:41;7.30;99.90
32097;DHT22;18610;49.916;8.284;2024-02-21T07:29:08;7.30;99.90
32097;DHT22;18610;49.916;8.284;2024-02-21T07:31:39;7.40;99.90
32097;DHT22;18610;49.916;8.284;2024-02-21T07:34:07;7.40;99.90
32097;DHT22;18610;49.916;8.284;2024-02-21T07:36:35;7.50;99.90
32097;DHT22;18610;49.916;8.284;2024-02-21T07:39:03;7.50;99.90
32097;DHT22;18610;49.916;8.284;2024-02-21T07:41:30;7.50;99.90
32097;DHT22;18610;49.916;8.284;2024-02-21T07:43:57;7.60;99.90
32097;DHT22;18610;49.916;8.284;2024-02-21T07:46:23;7.70;99.90
32097;DHT22;18610;49.916;8.284;2024-02-21T07:48:50;7.80;99.90
32097;DHT22;18610;49.916;8.284;2024-02-21T07:51:18;7.90;99.90
32097;DHT22;18610;49.916;8.284;2024-02-21T07:53:45;7.90;99.90
32097;DHT22;18610;49.916;8.284;2024-02-21T07:56:13;8.00;99.90
32097;DHT22;18610;49.916;8.284;2024-02-21T07:58:40;8.00;99.90
32097;DHT22;18610;49.916;8.284;2024-02-21T08:01:07;8.10;99.90
32097;DHT22;18610;49.916;8.284;2024-02-21T08:03:34;8.20;99.90
32097;DHT22;18610;49.916;8.284;2024-02-21T08:06:02;8.20;99.90
32097;DHT22;18610;49.916;8.284;2024-02-21T08:08:30;8.30;99.90
32097;DHT22;18610;49.916;8.284;2024-02-21T08:10:57;8.30;99.90
32097;DHT22;18610;49.916;8.284;2024-02-21T08:13:23;8.30;99.90
32097;DHT22;18610;49.916;8.284;2024-02-21T08:15:50;8.30;99.90
32097;DHT22;18610;49.916;8.284;2024-02-21T08:18:17;8.30;99.90
32097;DHT22;18610;49.916;8.284;2024-02-21T08:20:44;8.30;99.90
32097;DHT22;18610;49.916;8.284;2024-02-21T08:23:10;8.30;99.90
32097;DHT22;18610;49.916;8.284;2024-02-21T08:25:38;8.40;99.90
32097;DHT22;18610;49.916;8.284;2024-02-21T08:28:05;8.50;99.90
32097;DHT22;18610;49.916;8.284;2024-02-21T08:30:33;8.50;99.90
32097;DHT22;18610;49.916;8.284;2024-02-21T08:32:59;8.60;99.90
32097;DHT22;18610;49.916;8.284;2024-02-21T08:35:26;8.60;99.90
32097;DHT22;18610;49.916;8.284;2024-02-21T08:37:53;8.60;99.90
32097;DHT22;18610;49.916;8.284;2024-02-21T08:40:19;8.70;99.90
32097;DHT22;18610;49.916;8.284;2024-02-21T08:42:48;8.70;99.90
32097;DHT22;18610;49.916;8.284;2024-02-21T08:45:15;8.70;99.90
32097;DHT22;18610;49.916;8.284;2024-02-21T08:47:42;8.70;99.90
32097;DHT22;18610;49.916;8.284;2024-02-21T08:50:10;8.70;99.90
32097;DHT22;18610;49.916;8.284;2024-02-21T08:52:36;8.80;99.90
32097;DHT22;18610;49.916;8.284;2024-02-21T08:55:03;8.80;99.90
32097;DHT22;18610;49.916;8.284;2024-02-21T08:57:30;8.80;99.90
32097;DHT22;18610;49.916;8.284;2024-02-21T09:00:03;8.90;99.90
32097;DHT22;18610;49.916;8.284;2024-02-21T09:02:35;8.90;99.90
32097;DHT22;18610;49.916;8.284;2024-02-21T09:05:02;9.10;99.90
32097;DHT22;18610;49.916;8.284;2024-02-21T09:07:30;9.30;99.90
32097;DHT22;18610;49.916;8.284;2024-02-21T09:09:57;9.50;99.90
32097;DHT22;18610;49.916;8.284;2024-02-21T09:12:24;9.70;99.90
32097;DHT22;18610;49.916;8.284;2024-02-21T09:14:50;9.80;99.90
32097;DHT22;18610;49.916;8.284;2024-02-21T09:17:18;9.80;99.90
32097;DHT22;18610;49.916;8.284;2024-02-21T09:19:46;9.80;99.90
32097;DHT22;18610;49.916;8.284;2024-02-21T09:22:13;9.90;99.90
32097;DHT22;18610;49.916;8.284;2024-02-21T09:24:39;9.90;99.90
32097;DHT22;18610;49.916;8.284;2024-02-21T09:27:06;9.90;99.90
32097;DHT22;18610;49.916;8.284;2024-02-21T09:29:33;9.90;99.90
32097;DHT22;18610;49.916;8.284;2024-02-21T09:32:00;9.90;99.90
32097;DHT22;18610;49.916;8.284;2024-02-21T09:34:29;9.90;99.90
32097;DHT22;18610;49.916;8.284;2024-02-21T09:36:56;9.80;99.90
32097;DHT22;18610;49.916;8.284;2024-02-21T09:39:23;9.80;99.90
32097;DHT22;18610;49.916;8.284;2024-02-21T09:41:53;9.90;99.90
32097;DHT22;18610;49.916;8.284;2024-02-21T09:44:24;10.00;99.90
32097;DHT22;18610;49.916;8.284;2024-02-21T09:46:57;10.10;99.90
32097;DHT22;18610;49.916;8.284;2024-02-21T09:49:32;10.10;99.90
32097;DHT22;18610;49.916;8.284;2024-02-21T09:52:01;10.00;99.90
32097;DHT22;18610;49.916;8.284;2024-02-21T09:54:29;10.00;99.90
32097;DHT22;18610;49.916;8.284;2024-02-21T09:56:56;10.00;99.90
32097;DHT22;18610;49.916;8.284;2024-02-21T09:59:24;10.10;99.90
32097;DHT22;18610;49.916;8.284;2024-02-21T10:01:53;10.30;99.90
32097;DHT22;18610;49.916;8.284;2024-02-21T10:04:20;10.40;99.90
32097;DHT22;18610;49.916;8.284;2024-02-21T10:06:49;10.60;99.90
32097;DHT22;18610;49.916;8.284;2024-02-21T10:09:22;10.60;99.90
32097;DHT22;18610;49.916;8.284;2024-02-21T10:11:50;10.60;99.90
32097;DHT22;18610;49.916;8.284;2024-02-21T10:14:16;10.60;99.90
32097;DHT22;18610;49.916;8.284;2024-02-21T10:16:44;10.60;99.90
32097;DHT22;18610;49.916;8.284;2024-02-21T10:19:17;10.60;99.90
32097;DHT22;18610;49.916;8.284;2024-02-21T10:21:45;10.60;99.90
32097;DHT22;18610;49.916;8.284;2024-02-21T10:24:27;10.50;99.90
32097;DHT22;18610;49.916;8.284;2024-02-21T10:26:59;10.50;99.90
32097;DHT22;18610;49.916;8.284;2024-02-21T10:29:26;10.40;99.90
32097;DHT22;18610;49.916;8.284;2024-02-21T10:32:04;10.50;99.90
32097;DHT22;18610;49.916;8.284;2024-02-21T10:34:30;10.60;99.90
32097;DHT22;18610;49.916;8.284;2024-02-21T10:37:00;10.60;99.90
32097;DHT22;18610;49.916;8.284;2024-02-21T10:39:29;10.50;99.90
32097;DHT22;18610;49.916;8.284;2024-02-21T10:41:58;10.60;99.90
32097;DHT22;18610;49.916;8.284;2024-02-21T10:44:27;10.60;99.90
32097;DHT22;18610;49.916;8.284;2024-02-21T10:46:55;10.60;99.90
32097;DHT22;18610;49.916;8.284;2024-02-21T10:49:23;10.60;99.90
32097;DHT22;18610;49.916;8.284;2024-02-21T10:51:54;10.70;99.90
32097;DHT22;18610;49.916;8.284;2024-02-21T10:54:37;10.70;99.90
32097;DHT22;18610;49.916;8.284;2024-02-21T10:57:06;10.70;99.90
32097;DHT22;18610;49.916;8.284;2024-02-21T10:59:37;10.80;99.90
32097;DHT22;18610;49.916;8.284;2024-02-21T11:02:05;10.70;99.90
32097;DHT22;18610;49.916;8.284;2024-02-21T11:04:33;10.80;99.90
32097;DHT22;18610;49.916;8.284;2024-02-21T11:07:03;10.90;99.90
32097;DHT22;18610;49.916;8.284;2024-02-21T11:09:30;10.90;99.90
32097;DHT22;18610;49.916;8.284;2024-02-21T11:12:01;10.90;99.90
32097;DHT22;18610;49.916;8.284;2024-02-21T11:14:29;10.90;99.90
32097;DHT22;18610;49.916;8.284;2024-02-21T11:16:58;10.90;99.90
32097;DHT22;18610;49.916;8.284;2024-02-21T11:19:25;10.90;99.90
32097;DHT22;18610;49.916;8.284;2024-02-21T11:21:53;10.90;99.90
32097;DHT22;18610;49.916;8.284;2024-02-21T11:24:30;10.90;99.90
32097;DHT22;18610;49.916;8.284;2024-02-21T11:27:09;10.80;99.90
32097;DHT22;18610;49.916;8.284;2024-02-21T11:29:40;10.90;99.90
32097;DHT22;18610;49.916;8.284;2024-02-21T11:32:09;10.90;99.90
32097;DHT22;18610;49.916;8.284;2024-02-21T11:34:36;10.90;99.90
32097;DHT22;18610;49.916;8.284;2024-02-21T11:37:13;10.90;99.90
32097;DHT22;18610;49.916;8.284;2024-02-21T11:39:41;10.90;99.90
32097;DHT22;18610;49.916;8.284;2024-02-21T11:42:09;10.90;99.90
32097;DHT22;18610;49.916;8.284;2024-02-21T11:44:38;10.90;99.90
32097;DHT22;18610;49.916;8.284;2024-02-21T11:47:05;11.00;99.90
32097;DHT22;18610;49.916;8.284;2024-02-21T11:49:37;11.00;99.90
32097;DHT22;18610;49.916;8.284;2024-02-21T11:52:05;11.00;99.90
32097;DHT22;18610;49.916;8.284;2024-02-21T11:54:32;11.00;99.90
32097;DHT22;18610;49.916;8.284;2024-02-21T11:56:59;10.90;99.90
32097;DHT22;18610;49.916;8.284;2024-02-21T11:59:30;10.90;99.90
32097;DHT22;18610;49.916;8.284;2024-02-21T12:01:58;10.90;99.90
32097;DHT22;18610;49.916;8.284;2024-02-21T12:04:25;10.80;99.90
32097;DHT22;18610;49.916;8.284;2024-02-21T12:06:53;10.80;99.90
32097;DHT22;18610;49.916;8.284;2024-02-21T12:09:19;10.80;99.90
32097;DHT22;18610;49.916;8.284;2024-02-21T12:11:57;10.80;99.90
32097;DHT22;18610;49.916;8.284;2024-02-21T12:14:25;10.90;99.90
32097;DHT22;18610;49.916;8.284;2024-02-21T12:16:53;10.90;99.90
32097;DHT22;18610;49.916;8.284;2024-02-21T12:19:20;11.00;99.90
32097;DHT22;18610;49.916;8.284;2024-02-21T12:21:48;11.00;99.90
32097;DHT22;18610;49.916;8.284;2024-02-21T12:24:16;11.00;99.90
32097;DHT22;18610;49.916;8.284;2024-02-21T12:26:43;11.00;99.90
32097;DHT22;18610;49.916;8.284;2024-02-21T12:29:09;10.90;99.90
32097;DHT22;18610;49.916;8.284;2024-02-21T12:31:36;10.90;99.90
32097;DHT22;18610;49.916;8.284;2024-02-21T12:34:05;10.90;99.90
32097;DHT22;18610;49.916;8.284;2024-02-21T12:36:36;11.00;99.90
32097;DHT22;18610;49.916;8.284;2024-02-21T12:39:03;11.00;99.90
32097;DHT22;18610;49.916;8.284;2024-02-21T12:41:30;11.00;99.90
32097;DHT22;18610;49.916;8.284;2024-02-21T12:43:58;10.90;99.90
32097;DHT22;18610;49.916;8.284;2024-02-21T12:46:25;10.90;99.90
32097;DHT22;18610;49.916;8.284;2024-02-21T12:48:51;10.90;99.90
32097;DHT22;18610;49.916;8.284;2024-02-21T12:51:19;10.90;99.90
32097;DHT22;18610;49.916;8.284;2024-02-21T12:53:47;10.90;99.90
32097;DHT22;18610;49.916;8.284;2024-02-21T12:56:15;10.90;99.90
32097;DHT22;18610;49.916;8.284;2024-02-21T12:58:41;10.90;99.90
32097;DHT22;18610;49.916;8.284;2024-02-21T13:01:08;10.90;99.90
32097;DHT22;18610;49.916;8.284;2024-02-21T13:03:35;10.90;99.90
32097;DHT22;18610;49.916;8.284;2024-02-21T13:06:03;10.90;99.90
32097;DHT22;18610;49.916;8.284;2024-02-21T13:08:31;10.90;99.90
32097;DHT22;18610;49.916;8.284;2024-02-21T13:10:59;10.90;99.90
32097;DHT22;18610;49.916;8.284;2024-02-21T13:13:26;10.90;99.90
32097;DHT22;18610;49.916;8.284;2024-02-21T13:15:53;10.90;99.90
32097;DHT22;18610;49.916;8.284;2024-02-21T13:18:20;10.90;99.90
32097;DHT22;18610;49.916;8.284;2024-02-21T13:20:47;10.90;99.90
32097;DHT22;18610;49.916;8.284;2024-02-21T13:23:14;10.90;99.90
32097;DHT22;18610;49.916;8.284;2024-02-21T13:25:42;10.90;99.90
32097;DHT22;18610;49.916;8.284;2024-02-21T13:28:09;10.90;99.90
32097;DHT22;18610;49.916;8.284;2024-02-21T13:30:36;11.00;99.90
32097;DHT22;18610;49.916;8.284;2024-02-21T13:33:03;11.00;99.90
32097;DHT22;18610;49.916;8.284;2024-02-21T13:35:30;11.00;99.90
32097;DHT22;18610;49.916;8.284;2024-02-21T13:37:56;11.00;99.90
32097;DHT22;18610;49.916;8.284;2024-02-21T13:40:23;11.10;99.90
32097;DHT22;18610;49.916;8.284;2024-02-21T13:42:52;11.10;99.90
32097;DHT22;18610;49.916;8.284;2024-02-21T13:45:19;11.20;99.90
32097;DHT22;18610;49.916;8.284;2024-02-21T13:47:46;11.20;99.90
32097;DHT22;18610;49.916;8.284;2024-02-21T13:50:13;11.30;99.90
32097;DHT22;18610;49.916;8.284;2024-02-21T13:52:40;11.30;99.90
32097;DHT22;18610;49.916;8.284;2024-02-21T13:55:07;11.40;99.90
32097;DHT22;18610;49.916;8.284;2024-02-21T13:57:35;11.40;99.90
32097;DHT22;18610;49.916;8.284;2024-02-21T14:00:03;11.40;99.90
32097;DHT22;18610;49.916;8.284;2024-02-21T14:02:30;11.30;99.90
32097;DHT22;18610;49.916;8.284;2024-02-21T14:04:57;11.20;99.90
32097;DHT22;18610;49.916;8.284;2024-02-21T14:07:23;11.20;99.90
32097;DHT22;18610;49.916;8.284;2024-02-21T14:09:50;11.20;99.90
32097;DHT22;18610;49.916;8.284;2024-02-21T14:12:17;11.10;99.90
32097;DHT22;18610;49.916;8.284;2024-02-21T14:14:46;11.10;99.90
32097;DHT22;18610;49.916;8.284;2024-02-21T14:17:14;11.10;99.90
32097;DHT22;18610;49.916;8.284;2024-02-21T14:19:41;11.10;99.90
32097;DHT22;18610;49.916;8.284;2024-02-21T14:22:08;11.10;99.90
32097;DHT22;18610;49.916;8.284;2024-02-21T14:24:36;11.10;99.90
32097;DHT22;18610;49.916;8.284;2024-02-21T14:27:03;11.20;99.90
32097;DHT22;18610;49.916;8.284;2024-02-21T14:29:30;11.20;99.90
32097;DHT22;18610;49.916;8.284;2024-02-21T14:31:57;11.30;99.90
32097;DHT22;18610;49.916;8.284;2024-02-21T14:34:25;11.30;99.90
32097;DHT22;18610;49.916;8.284;2024-02-21T14:36:51;11.30;99.90
32097;DHT22;18610;49.916;8.284;2024-02-21T14:39:18;11.40;99.90
32097;DHT22;18610;49.916;8.284;2024-02-21T14:41:45;11.40;99.90
32097;DHT22;18610;49.916;8.284;2024-02-21T14:44:12;11.40;99.90
32097;DHT22;18610;49.916;8.284;2024-02-21T14:46:39;11.40;99.90
32097;DHT22;18610;49.916;8.284;2024-02-21T14:49:06;11.40;99.90
32097;DHT22;18610;49.916;8.284;2024-02-21T14:51:34;11.40;99.90
32097;DHT22;18610;49.916;8.284;2024-02-21T14:54:01;11.40;99.90
32097;DHT22;18610;49.916;8.284;2024-02-21T14:56:27;11.40;99.90
32097;DHT22;18610;49.916;8.284;2024-02-21T14:58:54;11.40;99.90
32097;DHT22;18610;49.916;8.284;2024-02-21T15:01:22;11.40;99.90
32097;DHT22;18610;49.916;8.284;2024-02-21T15:03:48;11.40;99.90
32097;DHT22;18610;49.916;8.284;2024-02-21T15:06:15;11.40;99.90
32097;DHT22;18610;49.916;8.284;2024-02-21T15:08:43;11.30;99.90
32097;DHT22;18610;49.916;8.284;2024-02-21T15:11:09;11.30;99.90
32097;DHT22;18610;49.916;8.284;2024-02-21T15:13:36;11.30;99.90
32097;DHT22;18610;49.916;8.284;2024-02-21T15:16:04;11.30;99.90
32097;DHT22;18610;49.916;8.284;2024-02-21T15:18:31;11.20;99.90
32097;DHT22;18610;49.916;8.284;2024-02-21T15:20:58;11.30;99.90
32097;DHT22;18610;49.916;8.284;2024-02-21T15:23:25;11.30;99.90
32097;DHT22;18610;49.916;8.284;2024-02-21T15:25:53;11.20;99.90
32097;DHT22;18610;49.916;8.284;2024-02-21T15:28:20;11.30;99.90
32097;DHT22;18610;49.916;8.284;2024-02-21T15:30:47;11.20;99.90
32097;DHT22;18610;49.916;8.284;2024-02-21T15:33:13;11.20;99.90
32097;DHT22;18610;49.916;8.284;2024-02-21T15:35:40;11.10;99.90
32097;DHT22;18610;49.916;8.284;2024-02-21T15:38:07;11.10;99.90
32097;DHT22;18610;49.916;8.284;2024-02-21T15:40:34;11.00;99.90
32097;DHT22;18610;49.916;8.284;2024-02-21T15:43:02;11.00;99.90